メインページ
METAR-TAF:

METAR-TAF

空港 :

佐賀空港

佐賀, 日本

緯度: 33-09N, 経度: 130-18E, 海抜: 2m

現時点の気象観測

当レポートは1時間3分前の11:00(UTC)に作成
北/北東の風 10kt
気温 20°C
湿度 53%
気圧 1014 hPa
視程10km以上
高度3000ftの雲はほとんどない
高度13000ftの千切れ雲あり
高度15000ftの千切れ雲あり

METAR: RJFS 201100Z 02010KT 9999 FEW030 BKN130 BKN150 20/10 Q1014

時間: 21:03 (12:03 UTC)

予報

当レポートは49分前の11:14(UTC)に作成
予報は20日の 12時(UTC)から 21日の 18時(UTC)まで有効
北/北東の風 11kt
視程10km以上
高度3000ftの雲はほとんどない
高度5000ftの千切れ雲あり
20日の 15時(UTC)から 20日の 17時(UTC)まで徐々に
の風 5kt
20日の 18時(UTC)から 20日の 20時(UTC)まで徐々に
北東の風 7kt
21日の 00時(UTC)から 21日の 03時(UTC)まで徐々に
南西の風 6kt
21日の 06時(UTC)から 21日の 09時(UTC)まで徐々に
北東の風 6kt

TAF: RJFS 201114Z 2012/2118 03011KT 9999 FEW030 BKN050 BECMG 2015/2017 35005KT BECMG 2018/2020 04007KT BECMG 2100/2103 22006KT BECMG 2106/2109 05006KT

4,000以上の空港の気象観測と天気予報(METAR報とTAF報)

利用可能な観測所は地図上に黄色い丸と赤い丸で示す。

丸の上にカーソルを重ねると観測所名を参照できる。

次にクリックすると気象観測と天気予報を参照できる。

マップの切り替え:黒色「×」印の緑ボタンをクリックして拡大、「-」印の緑ボタンをクリックして縮小、緑色の三角印をクリックして隣りの地図に切り替え


METAR-TAF: